A- A+ FrançaisEnglishEspañol中国

Services sur Internet Soldes sur Internet Des idées de cadeaux Météo Météo aéro

La météo à : Autours de vous Tarbes-Lourdes-PyrénéesBiarritz-Bayonne-Anglet Nice-Cote-D'azurHyeres-Le-Palyvestre

manche à air

La météo aéronautique pour les pilotes, la préparation du vol avec les METAR (METeorological Aerodrome Report, message d'observation des conditions météorologiques pour l'aviation) et Les TAF (Terminal Aerodrome Forecast : message de prévision à court terme des conditions météorologiques pour l'aviation). Et les autres ressources comme les VAC (Visual Approch Chart) et les NOTAM (Notice To Airman) pour préprer les vols.

Aéroport Koksijde AB (Belgique) / OACI EBFN

L'altitude de l'aéroport Koksijde AB est de 6 m = 20 ft. Il est situé à proximité de Koksijde (Belgique). La météo générale à 5 jours est disponible pour Koksijde situé à 3.3 km.

METAR de l'aéroport Koksijde AB - EBFN

EBFN 111333Z 20008KT 6000 FEW018 SCT030 BKN180 07/06 Q1005 WHT WHT TEMPO BLU

Décodage du METAR de l'aéroport Koksijde AB (Belgique)

METAR émis par EBFN le mercredi 11 décembre 2019 à 13:33 heure TU. Attention ce METAR est obsolète car il a été émis il y a 23 heure et 50 minutes.

La visibilité est de 6 km = 3.7 sm.

La température est de 7°C = 45 °F et le point rosée est de 6°C = 43 °F . Ce qui correspond à 93% d'humidité relative.

Le QNH est de 1005 hPa = 29.68 inHg

Vent de 8 kt = 15 km/h, orienté à 200°.

Nuages : Quelques nuages à 1800 ft = 550 mètres. Nuages épars à 3000 ft = 910 mètres. Couverture nuageuse fragmentée à 18000 ft = 5490 mètres.

WHT WHT temporairement BLU

TAF de l'aéroport Koksijde AB - EBFN

EBFN 111141Z 1113/1122 24007KT 9999 FEW020 SCT240

EBFN 111141Z 1113/1122 24007KT 9999 quelques nuages à 020 nuages épars à 240

Aéroport à proximité de Koksijde AB

Météo générale à 5 jours à Koksijde (3.3 km)Aéroport Dunkerque-Gyvelde (9 km)Aéroport Oostende (19 km)Aéroport Moorsele (44 km)Aéroport Kortrijk-Wevelgem (49 km)Aéroport St-Omer-Wizernes (50 km)Aéroport Calais-Dunkerque (51 km)

Vue aérienne de l'aéroport Koksijde AB

NOTAM de l'aéroport Koksijde AB

Les NOTAM sont fournis sans aucune garantie de leur actualité. Le pilote est le seul responsable de la vérification de sa validité avant de l'utiliser opérationnellement pour préparer un vol ou l'utiliser lors de sa navigation.

Pas de NOTAM

Sources des données